createdAt,value
2022-10-24T00:00:44.579Z,97430.72
2022-10-24T00:03:15.219Z,97436.66
2022-10-24T00:05:46.917Z,97431.19
2022-10-24T00:08:17.518Z,97439.06
2022-10-24T00:10:50.811Z,97444.16
2022-10-24T00:13:22.360Z,97444.91
2022-10-24T00:15:56.128Z,97449.16
2022-10-24T00:18:26.268Z,97456.41
2022-10-24T00:20:56.493Z,97453.81
2022-10-24T00:23:26.636Z,97460.97
2022-10-24T00:25:56.867Z,97453.34
2022-10-24T00:28:27.068Z,97455.88
2022-10-24T00:31:00.102Z,97459.44
2022-10-24T00:33:30.932Z,97462.53
2022-10-24T00:36:01.070Z,97458.53
2022-10-24T00:38:31.436Z,97464.66
2022-10-24T00:41:01.591Z,97469.66
2022-10-24T00:43:31.732Z,97478.91
2022-10-24T00:46:05.693Z,97477.47
2022-10-24T00:48:40.178Z,97474.75
2022-10-24T00:51:18.131Z,97476.78
2022-10-24T00:53:52.841Z,97478.53
2022-10-24T00:56:26.499Z,97482.78
2022-10-24T00:58:58.350Z,97480.72
2022-10-24T01:01:31.484Z,97476.78
2022-10-24T01:04:01.718Z,97472.69
2022-10-24T01:06:48.488Z,97475.69
2022-10-24T01:09:34.552Z,97456.97
2022-10-24T01:12:19.497Z,97450.53
2022-10-24T01:15:01.296Z,97463.19
2022-10-24T01:17:44.342Z,97490.03
2022-10-24T01:20:57.623Z,97449.25
2022-10-24T01:24:07.831Z,97450.00
2022-10-24T01:27:11.302Z,97449.25
2022-10-24T01:30:06.218Z,97448.25
2022-10-24T01:32:47.522Z,97448.34
2022-10-24T01:38:12.253Z,97446.97
2022-10-24T01:40:51.437Z,97446.09
2022-10-24T01:43:27.048Z,97448.25
2022-10-24T01:46:05.215Z,97447.38
2022-10-24T01:48:41.826Z,97446.09
2022-10-24T01:51:16.108Z,97453.84
2022-10-24T01:53:47.199Z,97440.59
2022-10-24T01:56:17.618Z,97445.44
2022-10-24T01:58:47.989Z,97448.56
2022-10-24T02:01:26.279Z,97443.50
2022-10-24T02:04:00.817Z,97440.34
2022-10-24T02:06:35.575Z,97437.44
2022-10-24T02:09:12.151Z,97433.28
2022-10-24T02:11:44.096Z,97424.41
2022-10-24T02:14:19.556Z,97428.81
2022-10-24T02:16:53.134Z,97434.72
2022-10-24T02:19:24.226Z,97432.00
2022-10-24T02:22:04.534Z,97437.94
2022-10-24T02:24:38.901Z,97434.47
2022-10-24T02:27:15.155Z,97436.59
2022-10-24T02:29:53.525Z,97429.47
2022-10-24T02:32:32.158Z,97427.72
2022-10-24T02:35:03.914Z,97430.56
2022-10-24T02:37:35.666Z,97431.41
2022-10-24T02:40:10.116Z,97428.84
2022-10-24T02:42:42.027Z,97436.47
2022-10-24T02:45:13.975Z,97446.63
2022-10-24T02:47:48.974Z,97435.19
2022-10-24T02:50:19.684Z,97446.25
2022-10-24T02:52:50.055Z,97440.19
2022-10-24T02:55:20.436Z,97449.97
2022-10-24T02:57:50.847Z,97461.75
2022-10-24T03:00:21.661Z,97458.25
2022-10-24T03:02:54.380Z,97459.38
2022-10-24T03:05:24.563Z,97456.75
2022-10-24T03:07:54.891Z,97461.44
2022-10-24T03:10:25.500Z,97466.34
2022-10-24T03:12:55.709Z,97455.66
2022-10-24T03:15:26.412Z,97455.88
2022-10-24T03:17:58.948Z,97454.16
2022-10-24T03:20:29.199Z,97453.84
2022-10-24T03:22:59.313Z,97460.00
2022-10-24T03:25:29.453Z,97463.53
2022-10-24T03:27:59.647Z,97461.78
2022-10-24T03:30:29.813Z,97454.47
2022-10-24T03:33:02.673Z,97454.78
2022-10-24T03:35:33.153Z,97451.53
2022-10-24T03:38:03.306Z,97443.66
2022-10-24T03:40:33.496Z,97445.69
2022-10-24T03:43:03.858Z,97439.34
2022-10-24T03:45:34.131Z,97441.16
2022-10-24T03:48:07.765Z,97443.22
2022-10-24T03:50:38.307Z,97450.59
2022-10-24T03:53:08.766Z,97442.69
2022-10-24T03:55:39.299Z,97442.69
2022-10-24T03:58:09.437Z,97440.41
2022-10-24T04:00:40.756Z,97444.19
2022-10-24T04:03:13.774Z,97443.34
2022-10-24T04:05:43.961Z,97454.03
2022-10-24T04:08:14.114Z,97461.47
2022-10-24T04:10:44.218Z,97455.88
2022-10-24T04:13:14.673Z,97454.03
2022-10-24T04:15:45.196Z,97447.91
2022-10-24T04:18:18.068Z,97453.75
2022-10-24T04:20:48.146Z,97462.94
2022-10-24T04:23:18.392Z,97459.94
2022-10-24T04:25:49.230Z,97456.13
2022-10-24T04:28:19.084Z,97464.25
2022-10-24T04:30:49.129Z,97459.94
2022-10-24T04:33:21.818Z,97453.88
2022-10-24T04:35:52.776Z,97456.97
2022-10-24T04:38:24.865Z,97453.13
2022-10-24T04:40:57.487Z,97452.56
2022-10-24T04:43:28.700Z,97449.19
2022-10-24T04:45:58.731Z,97452.13
2022-10-24T04:48:32.119Z,97452.81
2022-10-24T04:51:02.760Z,97460.91
2022-10-24T04:53:33.405Z,97471.13
2022-10-24T04:56:03.610Z,97471.59
2022-10-24T04:58:33.788Z,97470.81
2022-10-24T05:01:03.897Z,97471.53
2022-10-24T05:03:36.666Z,97469.78
2022-10-24T05:06:07.591Z,97469.25
2022-10-24T05:08:37.719Z,97459.88
2022-10-24T05:11:09.891Z,97451.75
2022-10-24T05:13:40.294Z,97444.66
2022-10-24T05:16:10.504Z,97442.56
2022-10-24T05:18:43.229Z,97431.56
2022-10-24T05:21:13.298Z,97438.47
2022-10-24T05:23:43.788Z,97445.56
2022-10-24T05:26:15.710Z,97458.03
2022-10-24T05:28:50.095Z,97454.22
2022-10-24T05:31:22.619Z,97460.56
2022-10-24T05:33:55.455Z,97456.78
2022-10-24T05:36:25.601Z,97462.69
2022-10-24T05:38:55.733Z,97460.41
2022-10-24T05:41:25.744Z,97456.06
2022-10-24T05:43:55.748Z,97456.38
2022-10-24T05:46:25.815Z,97447.53
2022-10-24T05:48:58.635Z,97438.59
2022-10-24T05:51:28.845Z,97437.31
2022-10-24T05:53:59.022Z,97441.16
2022-10-24T05:56:29.477Z,97455.38
2022-10-24T05:59:00.813Z,97459.47
2022-10-24T06:01:30.980Z,97458.72
2022-10-24T06:04:03.708Z,97457.34
2022-10-24T06:06:34.769Z,97464.72
2022-10-24T06:09:05.025Z,97471.66
2022-10-24T06:11:35.435Z,97467.88
2022-10-24T06:14:06.211Z,97461.22
2022-10-24T06:16:36.204Z,97458.34
2022-10-24T06:19:08.961Z,97469.25
2022-10-24T06:21:39.133Z,97459.41
2022-10-24T06:24:09.927Z,97467.28
2022-10-24T06:26:39.763Z,97457.34
2022-10-24T06:29:09.838Z,97454.34
2022-10-24T06:31:39.888Z,97446.63
2022-10-24T06:34:12.536Z,97457.06
2022-10-24T06:36:42.710Z,97454.22
2022-10-24T06:39:12.797Z,97459.50
2022-10-24T06:41:42.971Z,97455.84
2022-10-24T06:44:18.158Z,97454.19
2022-10-24T06:46:48.076Z,97457.66
2022-10-24T06:49:20.896Z,97475.06
2022-10-24T06:51:51.198Z,97469.69
2022-10-24T06:54:22.445Z,97461.59
2022-10-24T06:56:54.310Z,97468.91
2022-10-24T06:59:24.445Z,97471.81
2022-10-24T07:01:54.710Z,97468.47
2022-10-24T07:04:28.565Z,97485.50
2022-10-24T07:06:58.702Z,97475.06
2022-10-24T07:09:29.099Z,97480.03
2022-10-24T07:11:59.526Z,97475.09
2022-10-24T07:14:29.688Z,97475.06
2022-10-24T07:16:59.897Z,97472.38
2022-10-24T07:19:35.217Z,97480.69
2022-10-24T07:22:07.681Z,97495.09
2022-10-24T07:24:37.890Z,97490.06
2022-10-24T07:27:08.085Z,97483.88
2022-10-24T07:29:38.227Z,97480.50
2022-10-24T07:32:08.712Z,97480.44
2022-10-24T07:34:42.612Z,97490.47
2022-10-24T07:37:12.872Z,97493.63
2022-10-24T07:39:43.263Z,97496.09
2022-10-24T07:42:14.993Z,97500.09
2022-10-24T07:44:45.401Z,97495.09
2022-10-24T07:47:15.598Z,97499.06
2022-10-24T07:49:48.354Z,97501.00
2022-10-24T07:52:18.491Z,97497.66
2022-10-24T07:54:48.598Z,97500.50
2022-10-24T07:57:18.677Z,97500.31
2022-10-24T07:59:48.925Z,97497.34
2022-10-24T08:02:20.667Z,97503.06
2022-10-24T08:04:53.380Z,97495.72
2022-10-24T08:07:23.521Z,97497.78
2022-10-24T08:09:53.776Z,97495.63
2022-10-24T08:12:23.953Z,97497.81
2022-10-24T08:14:55.777Z,97496.50
2022-10-24T08:17:26.140Z,97500.28
2022-10-24T08:19:59.103Z,97505.69
2022-10-24T08:22:29.238Z,97508.41
2022-10-24T08:24:59.297Z,97499.31
2022-10-24T08:27:29.583Z,97495.66
2022-10-24T08:29:59.634Z,97510.88
2022-10-24T08:32:29.776Z,97505.16
2022-10-24T08:35:02.660Z,97513.91
2022-10-24T08:37:33.011Z,97513.78
2022-10-24T08:40:03.116Z,97511.22
2022-10-24T08:42:33.296Z,97525.34
2022-10-24T08:45:03.759Z,97535.16
2022-10-24T08:47:41.252Z,97526.94
2022-10-24T08:50:25.432Z,97533.13
2022-10-24T08:53:03.959Z,97529.66
2022-10-24T08:55:49.399Z,97514.13
2022-10-24T08:58:25.975Z,97524.81
2022-10-24T09:00:59.735Z,97514.88
2022-10-24T09:03:55.102Z,97503.00
2022-10-24T09:06:32.734Z,97502.69
2022-10-24T09:09:05.772Z,97497.06
2022-10-24T09:11:51.282Z,97477.09
2022-10-24T09:14:25.181Z,97475.16
2022-10-24T09:17:00.267Z,97477.09
2022-10-24T09:19:33.885Z,97483.03
2022-10-24T09:22:07.227Z,97466.16
2022-10-24T09:24:44.581Z,97487.91
2022-10-24T09:29:51.689Z,97493.50
2022-10-24T09:32:26.893Z,97505.69
2022-10-24T09:34:58.230Z,97512.69
2022-10-24T09:37:47.337Z,97511.94
2022-10-24T09:40:23.833Z,97502.81
2022-10-24T09:42:59.327Z,97512.38
2022-10-24T09:45:41.855Z,97525.34
2022-10-24T09:48:29.241Z,97534.50
2022-10-24T09:51:02.289Z,97553.47
2022-10-24T09:53:41.068Z,97559.88
2022-10-24T09:56:16.070Z,97544.13
2022-10-24T09:58:46.513Z,97535.03
2022-10-24T10:01:24.313Z,97549.28
2022-10-24T10:04:10.051Z,97521.78
2022-10-24T10:06:47.696Z,97526.41
2022-10-24T10:09:41.631Z,97509.13
2022-10-24T10:12:29.470Z,97504.28
2022-10-24T10:15:00.721Z,97489.06
2022-10-24T10:17:32.790Z,97434.72
2022-10-24T10:20:03.115Z,97433.97
2022-10-24T10:22:35.521Z,97406.69
2022-10-24T10:25:09.195Z,97413.97
2022-10-24T10:27:42.086Z,97425.09
2022-10-24T10:30:23.986Z,97415.59
2022-10-24T10:33:10.651Z,97437.19
2022-10-24T10:35:48.213Z,97429.66
2022-10-24T10:38:47.410Z,97440.88
2022-10-24T10:41:37.294Z,97453.09
2022-10-24T10:44:48.355Z,97448.59
2022-10-24T10:47:34.905Z,97451.41
2022-10-24T10:50:21.931Z,97458.19
2022-10-24T10:52:53.960Z,97465.09
2022-10-24T10:55:38.957Z,97463.91
2022-10-24T10:58:27.044Z,97474.38
2022-10-24T11:01:10.816Z,97453.75
2022-10-24T11:03:48.870Z,97461.34
2022-10-24T11:06:35.810Z,97458.84
2022-10-24T11:09:36.864Z,97472.13
2022-10-24T11:12:14.487Z,97483.34
2022-10-24T11:14:53.735Z,97471.78
2022-10-24T11:17:29.430Z,97477.75
2022-10-24T11:20:16.286Z,97470.94
2022-10-24T11:22:52.694Z,97492.13
2022-10-24T11:25:31.217Z,97498.56
2022-10-24T11:28:11.031Z,97494.97
2022-10-24T11:30:54.688Z,97497.78
2022-10-24T11:33:29.889Z,97487.22
2022-10-24T11:36:11.746Z,97464.34
2022-10-24T11:38:49.727Z,97446.97
2022-10-24T11:41:34.192Z,97437.88
2022-10-24T11:44:14.882Z,97465.09
2022-10-24T11:46:56.300Z,97466.75
2022-10-24T11:49:33.384Z,97462.72
2022-10-24T11:52:15.799Z,97461.00
2022-10-24T11:54:53.750Z,97470.84
2022-10-24T11:57:27.368Z,97461.09
2022-10-24T11:59:59.153Z,97457.00
2022-10-24T12:03:18.933Z,97461.41
2022-10-24T12:06:19.946Z,97462.81
2022-10-24T12:09:30.794Z,97464.56
2022-10-24T12:12:18.443Z,97459.91
2022-10-24T12:15:13.888Z,97469.63
2022-10-24T12:18:07.226Z,97457.00
2022-10-24T12:20:39.173Z,97459.69
2022-10-24T12:23:10.051Z,97464.53
2022-10-24T12:25:45.635Z,97468.22
2022-10-24T12:28:26.246Z,97473.63
2022-10-24T12:31:14.930Z,97475.69
2022-10-24T12:33:49.418Z,97461.13
2022-10-24T12:36:54.391Z,97449.66
2022-10-24T12:39:32.875Z,97447.28
2022-10-24T12:42:03.401Z,97457.22
2022-10-24T12:44:45.880Z,97453.88
2022-10-24T12:47:39.280Z,97452.69
2022-10-24T12:50:54.390Z,97450.09
2022-10-24T12:53:42.761Z,97451.06
2022-10-24T12:56:22.647Z,97453.44
2022-10-24T12:59:05.319Z,97456.78
2022-10-24T13:01:38.470Z,97465.09
2022-10-24T13:04:55.906Z,97463.34
2022-10-24T13:07:48.398Z,97467.78
2022-10-24T13:10:46.631Z,97457.84
2022-10-24T13:14:02.671Z,97459.13
2022-10-24T13:16:42.968Z,97456.66
2022-10-24T13:19:19.398Z,97470.81
2022-10-24T13:21:53.043Z,97469.81
2022-10-24T13:24:37.000Z,97467.53
2022-10-24T13:27:34.872Z,97469.81
2022-10-24T13:30:28.470Z,97466.81
2022-10-24T13:33:44.412Z,97460.13
2022-10-24T13:36:27.890Z,97467.78
2022-10-24T13:39:02.772Z,97454.28
2022-10-24T13:41:37.585Z,97459.38
2022-10-24T13:44:22.009Z,97469.84
2022-10-24T13:46:56.115Z,97461.88
2022-10-24T13:49:33.511Z,97461.41
2022-10-24T13:52:10.913Z,97480.00
2022-10-24T13:54:42.083Z,97466.03
2022-10-24T13:57:31.393Z,97465.31
2022-10-24T14:00:07.218Z,97470.72
2022-10-24T14:02:45.921Z,97474.50
2022-10-24T14:05:29.140Z,97478.59
2022-10-24T14:08:00.119Z,97463.38
2022-10-24T14:10:30.553Z,97456.47
2022-10-24T14:13:01.875Z,97457.22
2022-10-24T14:15:36.211Z,97466.94
2022-10-24T14:18:14.756Z,97467.56
2022-10-24T14:20:46.593Z,97468.97
2022-10-24T14:23:28.229Z,97464.56
2022-10-24T14:26:02.220Z,97454.97
2022-10-24T14:28:34.688Z,97460.88
2022-10-24T14:31:10.586Z,97461.53
2022-10-24T14:33:48.065Z,97464.56
2022-10-24T14:36:20.614Z,97466.50
2022-10-24T14:38:51.877Z,97470.16
2022-10-24T14:41:30.211Z,97459.56
2022-10-24T14:44:01.656Z,97461.53
2022-10-24T14:46:40.535Z,97457.06
2022-10-24T14:49:24.988Z,97470.34
2022-10-24T14:51:58.152Z,97464.22
2022-10-24T14:54:33.803Z,97466.28
2022-10-24T14:57:10.305Z,97475.13
2022-10-24T14:59:47.736Z,97467.84
2022-10-24T15:02:26.228Z,97479.81
2022-10-24T15:05:15.622Z,97481.53
2022-10-24T15:08:02.976Z,97500.72
2022-10-24T15:10:40.543Z,97504.97
2022-10-24T15:13:16.102Z,97498.22
2022-10-24T15:15:55.218Z,97499.28
2022-10-24T15:18:30.328Z,97513.09
2022-10-24T15:21:07.286Z,97506.72
2022-10-24T15:23:40.894Z,97503.38
2022-10-24T15:26:13.892Z,97498.53
2022-10-24T15:28:50.946Z,97505.66
2022-10-24T15:31:23.190Z,97501.84
2022-10-24T15:33:56.567Z,97502.28
2022-10-24T15:36:31.403Z,97515.81
2022-10-24T15:39:04.719Z,97501.44
2022-10-24T15:41:35.338Z,97504.56
2022-10-24T15:44:05.565Z,97504.38
2022-10-24T15:46:35.766Z,97506.09
2022-10-24T15:49:08.512Z,97499.06
2022-10-24T15:51:45.884Z,97501.03
2022-10-24T15:54:22.217Z,97499.00
2022-10-24T15:56:53.286Z,97498.41
2022-10-24T15:59:26.801Z,97504.34
2022-10-24T16:02:00.354Z,97514.97
2022-10-24T16:04:34.619Z,97504.63
2022-10-24T16:07:04.945Z,97491.81
2022-10-24T16:09:35.617Z,97496.78
2022-10-24T16:12:06.143Z,97499.13
2022-10-24T16:14:36.905Z,97499.06
2022-10-24T16:17:07.043Z,97499.56
2022-10-24T16:19:39.678Z,97504.94
2022-10-24T16:22:09.825Z,97497.59
2022-10-24T16:24:39.891Z,97508.03
2022-10-24T16:27:10.010Z,97514.41
2022-10-24T16:29:40.155Z,97513.31
2022-10-24T16:32:10.334Z,97500.69
2022-10-24T16:34:45.104Z,97494.56
2022-10-24T16:37:15.289Z,97497.13
2022-10-24T16:39:45.435Z,97492.56
2022-10-24T16:42:15.506Z,97501.53
2022-10-24T16:44:45.529Z,97507.94
2022-10-24T16:47:16.322Z,97506.19
2022-10-24T16:49:49.214Z,97498.81
2022-10-24T16:52:19.356Z,97505.94
2022-10-24T16:54:49.479Z,97501.09
2022-10-24T16:57:19.952Z,97505.00
2022-10-24T16:59:50.467Z,97507.09
2022-10-24T17:02:23.542Z,97506.03
2022-10-24T17:04:56.498Z,97509.09
2022-10-24T17:07:26.739Z,97510.06
2022-10-24T17:09:56.906Z,97500.75
2022-10-24T17:12:30.668Z,97511.97
2022-10-24T17:15:00.934Z,97509.91
2022-10-24T17:17:31.118Z,97510.69
2022-10-24T17:20:04.499Z,97506.09
2022-10-24T17:22:35.233Z,97508.47
2022-10-24T17:25:05.865Z,97506.53
2022-10-24T17:27:36.376Z,97518.94
2022-10-24T17:30:08.295Z,97518.13
2022-10-24T17:32:38.710Z,97515.09
2022-10-24T17:35:16.391Z,97518.59
2022-10-24T17:37:57.406Z,97513.06
2022-10-24T17:40:34.037Z,97519.41
2022-10-24T17:43:06.490Z,97521.69
2022-10-24T17:45:37.413Z,97517.13
2022-10-24T17:48:07.831Z,97526.63
2022-10-24T17:50:40.964Z,97526.41
2022-10-24T17:53:13.339Z,97526.19
2022-10-24T17:55:47.834Z,97526.47
2022-10-24T17:58:19.523Z,97525.72
2022-10-24T18:00:49.746Z,97522.19
2022-10-24T18:03:20.286Z,97520.97
2022-10-24T18:05:53.053Z,97529.88
2022-10-24T18:08:23.166Z,97525.53
2022-10-24T18:10:53.245Z,97520.44
2022-10-24T18:13:23.532Z,97525.53
2022-10-24T18:15:53.707Z,97526.34
2022-10-24T18:18:24.430Z,97525.88
2022-10-24T18:21:08.740Z,97531.94
2022-10-24T18:23:39.420Z,97544.16
2022-10-24T18:26:11.015Z,97550.44
2022-10-24T18:28:41.728Z,97555.50
2022-10-24T18:31:15.021Z,97558.53
2022-10-24T18:33:45.818Z,97558.81
2022-10-24T18:36:21.984Z,97554.69
2022-10-24T18:38:52.123Z,97548.91
2022-10-24T18:41:38.084Z,97565.19
2022-10-24T18:44:28.257Z,97558.06
2022-10-24T18:47:01.588Z,97561.88
2022-10-24T18:49:33.513Z,97563.16
2022-10-24T18:52:17.384Z,97560.16
2022-10-24T18:55:02.176Z,97562.13
2022-10-24T18:57:36.658Z,97562.59
2022-10-24T19:00:09.925Z,97557.53
2022-10-24T19:02:48.125Z,97564.16
2022-10-24T19:05:24.094Z,97563.88
2022-10-24T19:07:57.218Z,97550.94
2022-10-24T19:10:30.403Z,97557.81
2022-10-24T19:13:00.780Z,97558.09
2022-10-24T19:15:32.092Z,97560.34
2022-10-24T19:18:02.197Z,97568.50
2022-10-24T19:20:32.469Z,97566.97
2022-10-24T19:23:06.344Z,97561.66
2022-10-24T19:25:36.777Z,97565.72
2022-10-24T19:28:07.104Z,97551.75
2022-10-24T19:30:38.139Z,97549.47
2022-10-24T19:33:08.206Z,97554.03
2022-10-24T19:35:39.209Z,97554.00
2022-10-24T19:38:11.630Z,97553.25
2022-10-24T19:40:49.708Z,97550.47
2022-10-24T19:43:19.904Z,97551.50
2022-10-24T19:46:07.221Z,97558.84
2022-10-24T19:48:42.749Z,97554.81
2022-10-24T19:51:15.482Z,97562.22
2022-10-24T19:53:49.720Z,97569.31
2022-10-24T19:56:25.101Z,97570.75
2022-10-24T19:58:56.908Z,97571.78
2022-10-24T20:01:29.863Z,97576.84
2022-10-24T20:04:00.278Z,97579.88
2022-10-24T20:06:30.551Z,97573.53
2022-10-24T20:09:03.312Z,97572.50
2022-10-24T20:11:33.626Z,97573.53
2022-10-24T20:14:03.904Z,97577.09
2022-10-24T20:16:34.599Z,97578.91
2022-10-24T20:19:06.508Z,97572.06
2022-10-24T20:21:37.709Z,97574.09
2022-10-24T20:24:11.482Z,97574.59
2022-10-24T20:26:41.608Z,97576.38
2022-10-24T20:29:14.958Z,97576.66
2022-10-24T20:31:48.735Z,97581.00
2022-10-24T20:34:18.864Z,97572.88
2022-10-24T20:36:49.922Z,97580.28
2022-10-24T20:39:23.083Z,97579.75
2022-10-24T20:41:54.185Z,97579.75
2022-10-24T20:44:24.818Z,97574.19
2022-10-24T20:46:56.766Z,97576.69
2022-10-24T20:49:26.918Z,97581.25
2022-10-24T20:51:57.099Z,97574.38
2022-10-24T20:54:29.943Z,97577.69
2022-10-24T20:57:00.106Z,97576.19
2022-10-24T20:59:30.400Z,97584.81
2022-10-24T21:02:00.597Z,97590.91
2022-10-24T21:04:30.832Z,97585.56
2022-10-24T21:07:00.932Z,97592.69
2022-10-24T21:09:34.434Z,97587.09
2022-10-24T21:12:04.521Z,97588.59
2022-10-24T21:14:34.604Z,97602.84
2022-10-24T21:17:04.745Z,97604.63
2022-10-24T21:19:34.760Z,97596.53
2022-10-24T21:22:04.862Z,97594.47
2022-10-24T21:24:37.541Z,97594.75
2022-10-24T21:27:07.806Z,97588.91
2022-10-24T21:29:37.944Z,97580.28
2022-10-24T21:32:08.383Z,97591.66
2022-10-24T21:34:38.498Z,97587.34
2022-10-24T21:37:08.842Z,97596.78
2022-10-24T21:39:41.599Z,97594.00
2022-10-24T21:42:11.712Z,97592.22
2022-10-24T21:44:41.927Z,97593.25
2022-10-24T21:47:12.006Z,97593.72
2022-10-24T21:49:42.017Z,97591.69
2022-10-24T21:52:12.113Z,97588.13
2022-10-24T21:54:44.774Z,97588.38
2022-10-24T21:57:14.946Z,97582.06
2022-10-24T21:59:45.026Z,97590.44
2022-10-24T22:02:15.332Z,97592.47
2022-10-24T22:04:45.541Z,97590.19
2022-10-24T22:07:15.672Z,97589.47
2022-10-24T22:09:48.368Z,97587.38
2022-10-24T22:12:18.506Z,97587.63
2022-10-24T22:14:48.520Z,97596.00
2022-10-24T22:17:18.650Z,97591.50
2022-10-24T22:19:48.705Z,97589.72
2022-10-24T22:22:19.044Z,97585.13
2022-10-24T22:24:51.740Z,97592.25
2022-10-24T22:27:21.940Z,97592.25
2022-10-24T22:29:51.988Z,97593.50
2022-10-24T22:32:23.059Z,97595.03
2022-10-24T22:34:54.355Z,97590.16
2022-10-24T22:37:31.011Z,97585.91
2022-10-24T22:40:04.756Z,97600.91
2022-10-24T22:42:35.397Z,97602.44
2022-10-24T22:45:06.708Z,97598.63
2022-10-24T22:48:01.153Z,97604.47
2022-10-24T22:50:52.678Z,97601.19
2022-10-24T22:53:26.356Z,97609.31
2022-10-24T22:56:19.952Z,97612.09
2022-10-24T22:58:50.793Z,97609.03
2022-10-24T23:01:29.620Z,97617.41
2022-10-24T23:04:14.303Z,97608.03
2022-10-24T23:06:53.175Z,97607.78
2022-10-24T23:09:23.310Z,97616.16
2022-10-24T23:11:57.696Z,97616.69
2022-10-24T23:14:28.855Z,97621.50
2022-10-24T23:17:02.068Z,97618.97
2022-10-24T23:19:34.957Z,97619.22
2022-10-24T23:22:10.910Z,97618.47
2022-10-24T23:24:42.042Z,97624.06
2022-10-24T23:27:39.303Z,97633.69
2022-10-24T23:30:20.094Z,97631.16
2022-10-24T23:32:53.551Z,97638.78
2022-10-24T23:35:25.725Z,97637.75
2022-10-24T23:37:56.921Z,97642.09
2022-10-24T23:40:35.556Z,97640.28
2022-10-24T23:43:11.520Z,97637.50
2022-10-24T23:45:53.449Z,97652.47
2022-10-24T23:48:38.201Z,97654.00
2022-10-24T23:51:14.912Z,97654.25
2022-10-24T23:53:53.092Z,97651.72
2022-10-24T23:56:26.356Z,97660.59
2022-10-24T23:58:59.608Z,97659.06
